sensor_id;sensor_type;location;lat;lon;timestamp;P1;durP1;ratioP1;P2;durP2;ratioP2
7475;SDS011;3779;49.216;8.650;2022-08-14T00:00:25;3.70;;;3.10;;
7475;SDS011;3779;49.216;8.650;2022-08-14T00:03:18;3.78;;;2.90;;
7475;SDS011;3779;49.216;8.650;2022-08-14T00:06:05;4.45;;;3.03;;
7475;SDS011;3779;49.216;8.650;2022-08-14T00:08:51;4.35;;;2.72;;
7475;SDS011;3779;49.216;8.650;2022-08-14T00:11:37;3.60;;;3.10;;
7475;SDS011;3779;49.216;8.650;2022-08-14T00:14:23;3.33;;;3.10;;
7475;SDS011;3779;49.216;8.650;2022-08-14T00:17:10;3.35;;;3.10;;
7475;SDS011;3779;49.216;8.650;2022-08-14T00:19:56;3.10;;;2.90;;
7475;SDS011;3779;49.216;8.650;2022-08-14T00:22:42;3.03;;;2.83;;
7475;SDS011;3779;49.216;8.650;2022-08-14T00:25:28;3.30;;;3.00;;
7475;SDS011;3779;49.216;8.650;2022-08-14T00:28:14;3.40;;;2.88;;
7475;SDS011;3779;49.216;8.650;2022-08-14T00:31:00;3.78;;;3.38;;
7475;SDS011;3779;49.216;8.650;2022-08-14T00:33:46;3.20;;;3.00;;
7475;SDS011;3779;49.216;8.650;2022-08-14T00:36:32;3.40;;;3.10;;
7475;SDS011;3779;49.216;8.650;2022-08-14T00:39:18;3.75;;;3.35;;
7475;SDS011;3779;49.216;8.650;2022-08-14T00:42:04;3.53;;;3.22;;
7475;SDS011;3779;49.216;8.650;2022-08-14T00:44:50;4.43;;;3.33;;
7475;SDS011;3779;49.216;8.650;2022-08-14T00:47:36;5.63;;;3.28;;
7475;SDS011;3779;49.216;8.650;2022-08-14T00:50:23;4.03;;;3.30;;
7475;SDS011;3779;49.216;8.650;2022-08-14T00:53:09;3.50;;;3.20;;
7475;SDS011;3779;49.216;8.650;2022-08-14T00:55:55;3.88;;;3.58;;
7475;SDS011;3779;49.216;8.650;2022-08-14T00:58:41;3.65;;;3.40;;
7475;SDS011;3779;49.216;8.650;2022-08-14T01:01:28;4.00;;;3.70;;
7475;SDS011;3779;49.216;8.650;2022-08-14T01:04:14;4.28;;;3.80;;
7475;SDS011;3779;49.216;8.650;2022-08-14T01:07:00;4.13;;;3.55;;
7475;SDS011;3779;49.216;8.650;2022-08-14T01:09:48;3.75;;;3.45;;
7475;SDS011;3779;49.216;8.650;2022-08-14T01:12:35;3.78;;;3.33;;
7475;SDS011;3779;49.216;8.650;2022-08-14T01:15:25;4.82;;;3.63;;
7475;SDS011;3779;49.216;8.650;2022-08-14T01:18:11;3.75;;;3.45;;
7475;SDS011;3779;49.216;8.650;2022-08-14T01:21:20;5.32;;;3.88;;
7475;SDS011;3779;49.216;8.650;2022-08-14T01:24:10;5.45;;;3.60;;
7475;SDS011;3779;49.216;8.650;2022-08-14T01:26:59;3.83;;;3.15;;
7475;SDS011;3779;49.216;8.650;2022-08-14T01:29:47;4.25;;;3.75;;
7475;SDS011;3779;49.216;8.650;2022-08-14T01:32:35;3.78;;;3.47;;
7475;SDS011;3779;49.216;8.650;2022-08-14T01:35:22;6.28;;;3.80;;
7475;SDS011;3779;49.216;8.650;2022-08-14T01:38:08;4.80;;;4.00;;
7475;SDS011;3779;49.216;8.650;2022-08-14T01:40:57;4.00;;;3.60;;
7475;SDS011;3779;49.216;8.650;2022-08-14T01:43:44;3.92;;;3.60;;
7475;SDS011;3779;49.216;8.650;2022-08-14T01:46:35;3.83;;;3.40;;
7475;SDS011;3779;49.216;8.650;2022-08-14T01:49:24;4.32;;;3.92;;
7475;SDS011;3779;49.216;8.650;2022-08-14T01:52:10;4.25;;;3.80;;
7475;SDS011;3779;49.216;8.650;2022-08-14T01:54:57;4.80;;;3.50;;
7475;SDS011;3779;49.216;8.650;2022-08-14T01:57:43;5.18;;;3.60;;
7475;SDS011;3779;49.216;8.650;2022-08-14T02:00:29;5.38;;;3.92;;
7475;SDS011;3779;49.216;8.650;2022-08-14T02:03:15;4.30;;;3.90;;
7475;SDS011;3779;49.216;8.650;2022-08-14T02:06:01;5.05;;;3.80;;
7475;SDS011;3779;49.216;8.650;2022-08-14T02:08:47;3.65;;;3.42;;
7475;SDS011;3779;49.216;8.650;2022-08-14T02:11:34;3.97;;;3.60;;
7475;SDS011;3779;49.216;8.650;2022-08-14T02:14:20;4.05;;;3.75;;
7475;SDS011;3779;49.216;8.650;2022-08-14T02:17:07;4.40;;;4.00;;
7475;SDS011;3779;49.216;8.650;2022-08-14T02:19:54;5.63;;;4.20;;
7475;SDS011;3779;49.216;8.650;2022-08-14T02:22:39;4.28;;;3.80;;
7475;SDS011;3779;49.216;8.650;2022-08-14T02:25:25;4.53;;;3.58;;
7475;SDS011;3779;49.216;8.650;2022-08-14T02:28:11;4.50;;;4.07;;
7475;SDS011;3779;49.216;8.650;2022-08-14T02:30:57;4.30;;;3.90;;
7475;SDS011;3779;49.216;8.650;2022-08-14T02:33:45;5.50;;;4.03;;
7475;SDS011;3779;49.216;8.650;2022-08-14T02:36:31;5.68;;;4.05;;
7475;SDS011;3779;49.216;8.650;2022-08-14T02:39:17;4.30;;;4.00;;
7475;SDS011;3779;49.216;8.650;2022-08-14T02:42:05;4.50;;;4.20;;
7475;SDS011;3779;49.216;8.650;2022-08-14T02:44:56;4.30;;;4.00;;
7475;SDS011;3779;49.216;8.650;2022-08-14T02:47:42;4.00;;;3.67;;
7475;SDS011;3779;49.216;8.650;2022-08-14T02:50:28;4.50;;;4.10;;
7475;SDS011;3779;49.216;8.650;2022-08-14T02:53:14;4.68;;;4.28;;
7475;SDS011;3779;49.216;8.650;2022-08-14T02:56:00;5.32;;;4.10;;
7475;SDS011;3779;49.216;8.650;2022-08-14T02:58:48;5.35;;;3.67;;
7475;SDS011;3779;49.216;8.650;2022-08-14T03:01:35;4.95;;;4.13;;
7475;SDS011;3779;49.216;8.650;2022-08-14T03:04:22;4.30;;;3.90;;
7475;SDS011;3779;49.216;8.650;2022-08-14T03:07:08;4.28;;;3.88;;
7475;SDS011;3779;49.216;8.650;2022-08-14T03:09:54;5.05;;;3.92;;
7475;SDS011;3779;49.216;8.650;2022-08-14T03:12:40;4.10;;;3.70;;
7475;SDS011;3779;49.216;8.650;2022-08-14T03:15:26;4.13;;;3.83;;
7475;SDS011;3779;49.216;8.650;2022-08-14T03:18:12;8.73;;;4.53;;
7475;SDS011;3779;49.216;8.650;2022-08-14T03:20:59;4.35;;;3.95;;
7475;SDS011;3779;49.216;8.650;2022-08-14T03:23:49;4.55;;;3.75;;
7475;SDS011;3779;49.216;8.650;2022-08-14T03:26:43;4.53;;;4.22;;
7475;SDS011;3779;49.216;8.650;2022-08-14T03:29:30;4.40;;;4.00;;
7475;SDS011;3779;49.216;8.650;2022-08-14T03:32:16;4.72;;;4.43;;
7475;SDS011;3779;49.216;8.650;2022-08-14T03:35:02;4.72;;;4.32;;
7475;SDS011;3779;49.216;8.650;2022-08-14T03:37:49;4.50;;;4.20;;
7475;SDS011;3779;49.216;8.650;2022-08-14T03:40:37;6.03;;;4.32;;
7475;SDS011;3779;49.216;8.650;2022-08-14T03:43:24;4.75;;;4.35;;
7475;SDS011;3779;49.216;8.650;2022-08-14T03:46:11;4.93;;;4.50;;
7475;SDS011;3779;49.216;8.650;2022-08-14T03:48:58;5.28;;;4.88;;
7475;SDS011;3779;49.216;8.650;2022-08-14T03:51:47;4.70;;;4.35;;
7475;SDS011;3779;49.216;8.650;2022-08-14T03:54:32;5.07;;;4.68;;
7475;SDS011;3779;49.216;8.650;2022-08-14T03:57:19;5.25;;;4.78;;
7475;SDS011;3779;49.216;8.650;2022-08-14T04:00:09;5.60;;;4.47;;
7475;SDS011;3779;49.216;8.650;2022-08-14T04:02:57;5.85;;;4.32;;
7475;SDS011;3779;49.216;8.650;2022-08-14T04:05:43;5.05;;;4.65;;
7475;SDS011;3779;49.216;8.650;2022-08-14T04:08:29;5.38;;;4.63;;
7475;SDS011;3779;49.216;8.650;2022-08-14T04:11:15;5.35;;;4.38;;
7475;SDS011;3779;49.216;8.650;2022-08-14T04:14:03;5.25;;;4.85;;
7475;SDS011;3779;49.216;8.650;2022-08-14T04:16:50;5.15;;;4.63;;
7475;SDS011;3779;49.216;8.650;2022-08-14T04:19:36;5.07;;;4.60;;
7475;SDS011;3779;49.216;8.650;2022-08-14T04:22:23;4.70;;;4.05;;
7475;SDS011;3779;49.216;8.650;2022-08-14T04:25:09;4.90;;;4.50;;
7475;SDS011;3779;49.216;8.650;2022-08-14T04:27:55;5.60;;;5.10;;
7475;SDS011;3779;49.216;8.650;2022-08-14T04:30:41;5.22;;;4.57;;
7475;SDS011;3779;49.216;8.650;2022-08-14T04:33:26;5.25;;;4.75;;
7475;SDS011;3779;49.216;8.650;2022-08-14T04:36:13;5.65;;;4.60;;
7475;SDS011;3779;49.216;8.650;2022-08-14T04:38:59;5.28;;;4.78;;
7475;SDS011;3779;49.216;8.650;2022-08-14T04:42:03;4.65;;;4.25;;
7475;SDS011;3779;49.216;8.650;2022-08-14T04:45:08;4.97;;;4.65;;
7475;SDS011;3779;49.216;8.650;2022-08-14T04:47:54;5.25;;;4.80;;
7475;SDS011;3779;49.216;8.650;2022-08-14T04:50:58;5.18;;;4.53;;
7475;SDS011;3779;49.216;8.650;2022-08-14T04:53:46;9.70;;;4.90;;
7475;SDS011;3779;49.216;8.650;2022-08-14T04:56:33;6.10;;;5.50;;
7475;SDS011;3779;49.216;8.650;2022-08-14T04:59:19;5.25;;;4.82;;
7475;SDS011;3779;49.216;8.650;2022-08-14T05:02:05;5.68;;;5.00;;
7475;SDS011;3779;49.216;8.650;2022-08-14T05:04:52;5.55;;;5.05;;
7475;SDS011;3779;49.216;8.650;2022-08-14T05:07:38;5.38;;;4.97;;
7475;SDS011;3779;49.216;8.650;2022-08-14T05:10:24;5.53;;;5.00;;
7475;SDS011;3779;49.216;8.650;2022-08-14T05:13:10;5.00;;;4.60;;
7475;SDS011;3779;49.216;8.650;2022-08-14T05:15:58;5.35;;;4.95;;
7475;SDS011;3779;49.216;8.650;2022-08-14T05:18:45;8.25;;;5.50;;
7475;SDS011;3779;49.216;8.650;2022-08-14T05:21:31;5.43;;;5.03;;
7475;SDS011;3779;49.216;8.650;2022-08-14T05:24:19;9.02;;;6.05;;
7475;SDS011;3779;49.216;8.650;2022-08-14T05:27:04;5.85;;;5.35;;
7475;SDS011;3779;49.216;8.650;2022-08-14T05:29:51;6.35;;;5.85;;
7475;SDS011;3779;49.216;8.650;2022-08-14T05:32:39;6.20;;;5.70;;
7475;SDS011;3779;49.216;8.650;2022-08-14T05:35:27;6.53;;;5.93;;
7475;SDS011;3779;49.216;8.650;2022-08-14T05:38:14;5.75;;;5.25;;
7475;SDS011;3779;49.216;8.650;2022-08-14T05:41:09;6.07;;;5.57;;
7475;SDS011;3779;49.216;8.650;2022-08-14T05:43:58;6.38;;;5.88;;
7475;SDS011;3779;49.216;8.650;2022-08-14T05:46:44;6.75;;;6.25;;
7475;SDS011;3779;49.216;8.650;2022-08-14T05:49:30;6.32;;;5.78;;
7475;SDS011;3779;49.216;8.650;2022-08-14T05:52:16;6.20;;;5.70;;
7475;SDS011;3779;49.216;8.650;2022-08-14T05:55:03;6.35;;;5.85;;
7475;SDS011;3779;49.216;8.650;2022-08-14T05:57:51;6.45;;;5.95;;
7475;SDS011;3779;49.216;8.650;2022-08-14T06:00:41;6.50;;;6.00;;
7475;SDS011;3779;49.216;8.650;2022-08-14T06:03:28;7.20;;;5.63;;
7475;SDS011;3779;49.216;8.650;2022-08-14T06:06:14;5.72;;;5.32;;
7475;SDS011;3779;49.216;8.650;2022-08-14T06:09:02;6.10;;;5.50;;
7475;SDS011;3779;49.216;8.650;2022-08-14T06:11:48;6.60;;;6.10;;
7475;SDS011;3779;49.216;8.650;2022-08-14T06:14:34;6.70;;;6.15;;
7475;SDS011;3779;49.216;8.650;2022-08-14T06:17:21;6.50;;;5.90;;
7475;SDS011;3779;49.216;8.650;2022-08-14T06:20:07;6.10;;;5.53;;
7475;SDS011;3779;49.216;8.650;2022-08-14T06:22:53;7.40;;;6.68;;
7475;SDS011;3779;49.216;8.650;2022-08-14T06:25:39;6.15;;;5.65;;
7475;SDS011;3779;49.216;8.650;2022-08-14T06:28:26;6.53;;;5.93;;
7475;SDS011;3779;49.216;8.650;2022-08-14T06:31:12;6.03;;;5.50;;
7475;SDS011;3779;49.216;8.650;2022-08-14T06:33:57;6.05;;;5.55;;
7475;SDS011;3779;49.216;8.650;2022-08-14T06:36:44;6.25;;;5.68;;
7475;SDS011;3779;49.216;8.650;2022-08-14T06:39:29;6.28;;;5.70;;
7475;SDS011;3779;49.216;8.650;2022-08-14T06:42:15;5.68;;;5.28;;
7475;SDS011;3779;49.216;8.650;2022-08-14T06:45:01;5.80;;;5.30;;
7475;SDS011;3779;49.216;8.650;2022-08-14T06:47:47;6.45;;;5.82;;
7475;SDS011;3779;49.216;8.650;2022-08-14T06:50:33;5.85;;;4.45;;
7475;SDS011;3779;49.216;8.650;2022-08-14T06:53:19;6.03;;;5.53;;
7475;SDS011;3779;49.216;8.650;2022-08-14T06:56:06;5.78;;;5.38;;
7475;SDS011;3779;49.216;8.650;2022-08-14T06:58:52;5.53;;;5.03;;
7475;SDS011;3779;49.216;8.650;2022-08-14T07:01:38;6.63;;;6.03;;
7475;SDS011;3779;49.216;8.650;2022-08-14T07:04:42;6.00;;;5.60;;
7475;SDS011;3779;49.216;8.650;2022-08-14T07:07:47;5.60;;;5.10;;
7475;SDS011;3779;49.216;8.650;2022-08-14T07:10:33;4.90;;;4.45;;
7475;SDS011;3779;49.216;8.650;2022-08-14T07:13:19;6.10;;;5.28;;
7475;SDS011;3779;49.216;8.650;2022-08-14T07:16:06;5.82;;;5.25;;
7475;SDS011;3779;49.216;8.650;2022-08-14T07:18:52;6.25;;;5.75;;
7475;SDS011;3779;49.216;8.650;2022-08-14T07:21:38;5.18;;;4.78;;
7475;SDS011;3779;49.216;8.650;2022-08-14T07:24:23;3.42;;;3.13;;
7475;SDS011;3779;49.216;8.650;2022-08-14T07:27:09;4.43;;;4.03;;
7475;SDS011;3779;49.216;8.650;2022-08-14T07:29:55;6.97;;;4.85;;
7475;SDS011;3779;49.216;8.650;2022-08-14T07:32:41;4.72;;;4.32;;
7475;SDS011;3779;49.216;8.650;2022-08-14T07:35:27;5.43;;;5.03;;
7475;SDS011;3779;49.216;8.650;2022-08-14T07:38:16;5.45;;;4.95;;
7475;SDS011;3779;49.216;8.650;2022-08-14T07:41:07;6.15;;;5.13;;
7475;SDS011;3779;49.216;8.650;2022-08-14T07:43:54;5.70;;;5.20;;
7475;SDS011;3779;49.216;8.650;2022-08-14T07:46:40;3.22;;;3.03;;
7475;SDS011;3779;49.216;8.650;2022-08-14T07:49:26;5.07;;;4.65;;
7475;SDS011;3779;49.216;8.650;2022-08-14T07:52:12;5.18;;;4.70;;
7475;SDS011;3779;49.216;8.650;2022-08-14T07:54:58;5.28;;;4.63;;
7475;SDS011;3779;49.216;8.650;2022-08-14T07:57:45;2.80;;;2.60;;
7475;SDS011;3779;49.216;8.650;2022-08-14T08:00:32;4.95;;;4.65;;
7475;SDS011;3779;49.216;8.650;2022-08-14T08:03:18;5.30;;;4.80;;
7475;SDS011;3779;49.216;8.650;2022-08-14T08:06:04;6.50;;;4.80;;
7475;SDS011;3779;49.216;8.650;2022-08-14T08:08:51;4.10;;;3.80;;
7475;SDS011;3779;49.216;8.650;2022-08-14T08:11:41;3.10;;;2.88;;
7475;SDS011;3779;49.216;8.650;2022-08-14T08:14:28;2.40;;;2.20;;
7475;SDS011;3779;49.216;8.650;2022-08-14T08:17:16;3.20;;;3.00;;
7475;SDS011;3779;49.216;8.650;2022-08-14T08:20:05;5.68;;;4.13;;
7475;SDS011;3779;49.216;8.650;2022-08-14T08:22:56;2.90;;;2.70;;
7475;SDS011;3779;49.216;8.650;2022-08-14T08:25:44;2.25;;;2.05;;
7475;SDS011;3779;49.216;8.650;2022-08-14T08:28:32;2.30;;;1.95;;
7475;SDS011;3779;49.216;8.650;2022-08-14T08:31:18;2.70;;;2.50;;
7475;SDS011;3779;49.216;8.650;2022-08-14T08:34:04;2.10;;;1.90;;
7475;SDS011;3779;49.216;8.650;2022-08-14T08:36:50;1.88;;;1.73;;
7475;SDS011;3779;49.216;8.650;2022-08-14T08:39:43;9.50;;;3.28;;
7475;SDS011;3779;49.216;8.650;2022-08-14T08:42:30;1.70;;;1.60;;
7475;SDS011;3779;49.216;8.650;2022-08-14T08:45:17;1.60;;;1.50;;
7475;SDS011;3779;49.216;8.650;2022-08-14T08:48:03;1.33;;;1.23;;
7475;SDS011;3779;49.216;8.650;2022-08-14T08:50:49;7.32;;;1.95;;
7475;SDS011;3779;49.216;8.650;2022-08-14T08:53:35;1.67;;;1.58;;
7475;SDS011;3779;49.216;8.650;2022-08-14T08:56:31;1.90;;;1.80;;
7475;SDS011;3779;49.216;8.650;2022-08-14T08:59:30;1.48;;;1.38;;
7475;SDS011;3779;49.216;8.650;2022-08-14T09:02:16;1.50;;;1.40;;
7475;SDS011;3779;49.216;8.650;2022-08-14T09:05:02;1.73;;;1.63;;
7475;SDS011;3779;49.216;8.650;2022-08-14T09:07:49;1.50;;;1.40;;
7475;SDS011;3779;49.216;8.650;2022-08-14T09:10:35;1.50;;;1.40;;
7475;SDS011;3779;49.216;8.650;2022-08-14T09:13:22;1.98;;;1.80;;
7475;SDS011;3779;49.216;8.650;2022-08-14T09:16:10;1.50;;;1.40;;
7475;SDS011;3779;49.216;8.650;2022-08-14T09:18:56;2.60;;;2.33;;
7475;SDS011;3779;49.216;8.650;2022-08-14T09:21:42;1.30;;;1.20;;
7475;SDS011;3779;49.216;8.650;2022-08-14T09:24:30;1.40;;;1.30;;
7475;SDS011;3779;49.216;8.650;2022-08-14T09:27:16;1.55;;;1.45;;
7475;SDS011;3779;49.216;8.650;2022-08-14T09:30:04;1.30;;;1.23;;
7475;SDS011;3779;49.216;8.650;2022-08-14T09:32:59;2.17;;;2.08;;
7475;SDS011;3779;49.216;8.650;2022-08-14T09:45:14;2.13;;;1.30;;
7475;SDS011;3779;49.216;8.650;2022-08-14T09:48:01;2.58;;;2.33;;
7475;SDS011;3779;49.216;8.650;2022-08-14T09:51:02;1.10;;;1.10;;
7475;SDS011;3779;49.216;8.650;2022-08-14T09:56:53;1.50;;;1.40;;
7475;SDS011;3779;49.216;8.650;2022-08-14T09:59:40;1.40;;;1.30;;
7475;SDS011;3779;49.216;8.650;2022-08-14T10:02:30;1.10;;;1.10;;
7475;SDS011;3779;49.216;8.650;2022-08-14T10:05:25;1.02;;;1.02;;
7475;SDS011;3779;49.216;8.650;2022-08-14T10:08:18;1.00;;;1.00;;
7475;SDS011;3779;49.216;8.650;2022-08-14T10:11:12;3.00;;;2.53;;
7475;SDS011;3779;49.216;8.650;2022-08-14T10:14:10;2.53;;;2.33;;
7475;SDS011;3779;49.216;8.650;2022-08-14T10:17:01;2.65;;;1.83;;
7475;SDS011;3779;49.216;8.650;2022-08-14T10:19:49;1.42;;;1.33;;
7475;SDS011;3779;49.216;8.650;2022-08-14T10:22:36;1.60;;;1.50;;
7475;SDS011;3779;49.216;8.650;2022-08-14T10:25:22;1.42;;;1.33;;
7475;SDS011;3779;49.216;8.650;2022-08-14T10:28:09;1.80;;;1.70;;
7475;SDS011;3779;49.216;8.650;2022-08-14T10:30:59;1.92;;;1.60;;
7475;SDS011;3779;49.216;8.650;2022-08-14T10:33:57;1.95;;;1.75;;
7475;SDS011;3779;49.216;8.650;2022-08-14T10:37:00;2.20;;;2.10;;
7475;SDS011;3779;49.216;8.650;2022-08-14T10:40:00;2.20;;;2.10;;
7475;SDS011;3779;49.216;8.650;2022-08-14T10:42:46;1.73;;;1.63;;
7475;SDS011;3779;49.216;8.650;2022-08-14T10:45:33;1.35;;;1.25;;
7475;SDS011;3779;49.216;8.650;2022-08-14T10:48:19;1.67;;;1.58;;
7475;SDS011;3779;49.216;8.650;2022-08-14T10:51:05;3.53;;;2.28;;
7475;SDS011;3779;49.216;8.650;2022-08-14T10:53:54;2.80;;;2.60;;
7475;SDS011;3779;49.216;8.650;2022-08-14T10:56:41;3.03;;;2.20;;
7475;SDS011;3779;49.216;8.650;2022-08-14T10:59:39;1.67;;;1.58;;
7475;SDS011;3779;49.216;8.650;2022-08-14T11:02:31;3.25;;;2.50;;
7475;SDS011;3779;49.216;8.650;2022-08-14T11:05:20;2.70;;;2.47;;
7475;SDS011;3779;49.216;8.650;2022-08-14T11:08:09;1.90;;;1.80;;
7475;SDS011;3779;49.216;8.650;2022-08-14T11:10:57;2.45;;;2.25;;
7475;SDS011;3779;49.216;8.650;2022-08-14T11:13:45;1.75;;;1.40;;
7475;SDS011;3779;49.216;8.650;2022-08-14T11:16:31;1.60;;;1.38;;
7475;SDS011;3779;49.216;8.650;2022-08-14T11:19:20;2.75;;;1.75;;
7475;SDS011;3779;49.216;8.650;2022-08-14T11:22:10;2.13;;;2.00;;
7475;SDS011;3779;49.216;8.650;2022-08-14T11:25:04;2.30;;;2.17;;
7475;SDS011;3779;49.216;8.650;2022-08-14T11:27:52;2.88;;;2.67;;
7475;SDS011;3779;49.216;8.650;2022-08-14T11:30:39;2.28;;;2.08;;
7475;SDS011;3779;49.216;8.650;2022-08-14T11:33:27;2.90;;;2.70;;
7475;SDS011;3779;49.216;8.650;2022-08-14T11:36:20;3.35;;;2.47;;
7475;SDS011;3779;49.216;8.650;2022-08-14T11:39:22;3.47;;;2.88;;
7475;SDS011;3779;49.216;8.650;2022-08-14T11:42:18;2.10;;;1.90;;
7475;SDS011;3779;49.216;8.650;2022-08-14T11:45:05;3.58;;;2.55;;
7475;SDS011;3779;49.216;8.650;2022-08-14T11:47:52;2.67;;;2.47;;
7475;SDS011;3779;49.216;8.650;2022-08-14T11:50:40;4.47;;;2.85;;
7475;SDS011;3779;49.216;8.650;2022-08-14T11:53:28;3.35;;;3.05;;
7475;SDS011;3779;49.216;8.650;2022-08-14T11:56:15;2.95;;;2.67;;
7475;SDS011;3779;49.216;8.650;2022-08-14T11:59:01;2.95;;;2.70;;
7475;SDS011;3779;49.216;8.650;2022-08-14T12:01:50;2.13;;;1.95;;
7475;SDS011;3779;49.216;8.650;2022-08-14T12:04:46;2.63;;;2.42;;
7475;SDS011;3779;49.216;8.650;2022-08-14T12:07:34;3.20;;;2.90;;
7475;SDS011;3779;49.216;8.650;2022-08-14T12:10:20;2.50;;;2.30;;
7475;SDS011;3779;49.216;8.650;2022-08-14T12:13:17;3.20;;;2.38;;
7475;SDS011;3779;49.216;8.650;2022-08-14T12:16:04;2.80;;;2.60;;
7475;SDS011;3779;49.216;8.650;2022-08-14T12:18:52;1.88;;;1.73;;
7475;SDS011;3779;49.216;8.650;2022-08-14T12:21:42;3.28;;;2.50;;
7475;SDS011;3779;49.216;8.650;2022-08-14T12:24:35;2.15;;;1.98;;
7475;SDS011;3779;49.216;8.650;2022-08-14T12:27:21;3.00;;;2.80;;
7475;SDS011;3779;49.216;8.650;2022-08-14T12:30:11;2.03;;;1.83;;
7475;SDS011;3779;49.216;8.650;2022-08-14T12:32:58;3.00;;;2.70;;
7475;SDS011;3779;49.216;8.650;2022-08-14T12:35:46;3.22;;;2.75;;
7475;SDS011;3779;49.216;8.650;2022-08-14T12:38:37;2.88;;;2.67;;
7475;SDS011;3779;49.216;8.650;2022-08-14T12:41:26;2.92;;;1.88;;
7475;SDS011;3779;49.216;8.650;2022-08-14T12:44:27;2.33;;;1.80;;
7475;SDS011;3779;49.216;8.650;2022-08-14T12:47:25;2.00;;;1.90;;
7475;SDS011;3779;49.216;8.650;2022-08-14T12:50:15;3.25;;;2.60;;
7475;SDS011;3779;49.216;8.650;2022-08-14T12:53:01;2.88;;;2.55;;
7475;SDS011;3779;49.216;8.650;2022-08-14T12:55:56;3.33;;;2.92;;
7475;SDS011;3779;49.216;8.650;2022-08-14T12:58:48;2.45;;;2.10;;
7475;SDS011;3779;49.216;8.650;2022-08-14T13:01:35;2.85;;;2.17;;
7475;SDS011;3779;49.216;8.650;2022-08-14T13:04:21;2.88;;;2.63;;
7475;SDS011;3779;49.216;8.650;2022-08-14T13:07:07;4.32;;;2.72;;
7475;SDS011;3779;49.216;8.650;2022-08-14T13:09:54;1.80;;;1.70;;
7475;SDS011;3779;49.216;8.650;2022-08-14T13:12:41;2.20;;;1.63;;
7475;SDS011;3779;49.216;8.650;2022-08-14T13:15:27;1.48;;;1.38;;
7475;SDS011;3779;49.216;8.650;2022-08-14T13:18:14;2.78;;;2.22;;
7475;SDS011;3779;49.216;8.650;2022-08-14T13:21:01;2.88;;;2.67;;
7475;SDS011;3779;49.216;8.650;2022-08-14T13:23:48;2.58;;;2.35;;
7475;SDS011;3779;49.216;8.650;2022-08-14T13:26:34;3.25;;;2.33;;
7475;SDS011;3779;49.216;8.650;2022-08-14T13:29:22;3.00;;;2.80;;
7475;SDS011;3779;49.216;8.650;2022-08-14T13:32:10;2.58;;;2.38;;
7475;SDS011;3779;49.216;8.650;2022-08-14T13:34:57;2.10;;;1.95;;
7475;SDS011;3779;49.216;8.650;2022-08-14T13:37:44;2.70;;;2.50;;
7475;SDS011;3779;49.216;8.650;2022-08-14T13:40:33;3.88;;;2.58;;
7475;SDS011;3779;49.216;8.650;2022-08-14T13:43:20;2.22;;;1.90;;
7475;SDS011;3779;49.216;8.650;2022-08-14T13:46:08;2.63;;;1.80;;
7475;SDS011;3779;49.216;8.650;2022-08-14T13:48:54;1.92;;;1.73;;
7475;SDS011;3779;49.216;8.650;2022-08-14T13:51:42;2.58;;;1.60;;
7475;SDS011;3779;49.216;8.650;2022-08-14T13:54:32;2.58;;;1.70;;
7475;SDS011;3779;49.216;8.650;2022-08-14T13:57:19;1.58;;;1.40;;
7475;SDS011;3779;49.216;8.650;2022-08-14T14:00:07;2.65;;;2.40;;
7475;SDS011;3779;49.216;8.650;2022-08-14T14:02:58;2.50;;;2.35;;
7475;SDS011;3779;49.216;8.650;2022-08-14T14:05:44;2.97;;;2.65;;
7475;SDS011;3779;49.216;8.650;2022-08-14T14:08:35;2.70;;;2.50;;
7475;SDS011;3779;49.216;8.650;2022-08-14T14:11:32;2.20;;;2.00;;
7475;SDS011;3779;49.216;8.650;2022-08-14T14:14:20;3.25;;;2.20;;
7475;SDS011;3779;49.216;8.650;2022-08-14T14:17:09;2.45;;;2.20;;
7475;SDS011;3779;49.216;8.650;2022-08-14T14:19:59;2.53;;;2.33;;
7475;SDS011;3779;49.216;8.650;2022-08-14T14:22:46;2.35;;;2.15;;
7475;SDS011;3779;49.216;8.650;2022-08-14T14:25:33;2.05;;;1.95;;
7475;SDS011;3779;49.216;8.650;2022-08-14T14:28:19;2.70;;;2.50;;
7475;SDS011;3779;49.216;8.650;2022-08-14T14:31:05;2.60;;;2.40;;
7475;SDS011;3779;49.216;8.650;2022-08-14T14:33:56;2.67;;;2.42;;
7475;SDS011;3779;49.216;8.650;2022-08-14T14:36:43;2.10;;;1.80;;
7475;SDS011;3779;49.216;8.650;2022-08-14T14:39:31;2.22;;;2.00;;
7475;SDS011;3779;49.216;8.650;2022-08-14T14:42:18;2.50;;;2.30;;
7475;SDS011;3779;49.216;8.650;2022-08-14T14:45:09;5.45;;;2.67;;
7475;SDS011;3779;49.216;8.650;2022-08-14T14:47:58;2.55;;;2.00;;
7475;SDS011;3779;49.216;8.650;2022-08-14T14:50:45;3.70;;;1.90;;
7475;SDS011;3779;49.216;8.650;2022-08-14T14:53:38;2.70;;;2.50;;
7475;SDS011;3779;49.216;8.650;2022-08-14T14:56:25;1.60;;;1.50;;
7475;SDS011;3779;49.216;8.650;2022-08-14T14:59:13;1.90;;;1.80;;
7475;SDS011;3779;49.216;8.650;2022-08-14T15:02:02;1.83;;;1.48;;
7475;SDS011;3779;49.216;8.650;2022-08-14T15:04:50;1.92;;;1.83;;
7475;SDS011;3779;49.216;8.650;2022-08-14T15:07:37;4.05;;;1.80;;
7475;SDS011;3779;49.216;8.650;2022-08-14T15:10:23;2.95;;;2.20;;
7475;SDS011;3779;49.216;8.650;2022-08-14T15:13:09;3.20;;;2.20;;
7475;SDS011;3779;49.216;8.650;2022-08-14T15:15:55;2.80;;;2.33;;
7475;SDS011;3779;49.216;8.650;2022-08-14T15:18:41;2.22;;;1.70;;
7475;SDS011;3779;49.216;8.650;2022-08-14T15:21:30;2.17;;;1.90;;
7475;SDS011;3779;49.216;8.650;2022-08-14T15:24:16;2.22;;;1.70;;
7475;SDS011;3779;49.216;8.650;2022-08-14T15:27:02;1.58;;;1.48;;
7475;SDS011;3779;49.216;8.650;2022-08-14T15:29:51;1.50;;;1.40;;
7475;SDS011;3779;49.216;8.650;2022-08-14T15:32:37;1.50;;;1.40;;
7475;SDS011;3779;49.216;8.650;2022-08-14T15:35:23;1.73;;;1.63;;
7475;SDS011;3779;49.216;8.650;2022-08-14T15:38:08;2.78;;;2.30;;
7475;SDS011;3779;49.216;8.650;2022-08-14T15:40:54;3.08;;;2.80;;
7475;SDS011;3779;49.216;8.650;2022-08-14T15:43:40;3.17;;;2.10;;
7475;SDS011;3779;49.216;8.650;2022-08-14T15:46:27;1.90;;;1.80;;
7475;SDS011;3779;49.216;8.650;2022-08-14T15:49:13;1.70;;;1.60;;
7475;SDS011;3779;49.216;8.650;2022-08-14T15:51:59;1.83;;;1.50;;
7475;SDS011;3779;49.216;8.650;2022-08-14T15:54:47;1.55;;;1.45;;
7475;SDS011;3779;49.216;8.650;2022-08-14T15:57:35;2.10;;;1.38;;
7475;SDS011;3779;49.216;8.650;2022-08-14T16:00:21;1.55;;;1.33;;
7475;SDS011;3779;49.216;8.650;2022-08-14T16:03:26;1.40;;;1.30;;
7475;SDS011;3779;49.216;8.650;2022-08-14T16:06:13;1.50;;;1.40;;
7475;SDS011;3779;49.216;8.650;2022-08-14T16:09:00;1.52;;;1.42;;
7475;SDS011;3779;49.216;8.650;2022-08-14T16:11:47;0.98;;;0.98;;
7475;SDS011;3779;49.216;8.650;2022-08-14T16:14:33;2.85;;;1.60;;
7475;SDS011;3779;49.216;8.650;2022-08-14T16:17:22;1.58;;;1.40;;
7475;SDS011;3779;49.216;8.650;2022-08-14T16:20:10;1.60;;;1.50;;
7475;SDS011;3779;49.216;8.650;2022-08-14T16:22:56;1.50;;;1.40;;
7475;SDS011;3779;49.216;8.650;2022-08-14T16:25:43;1.40;;;1.30;;
7475;SDS011;3779;49.216;8.650;2022-08-14T16:28:32;1.40;;;1.30;;
7475;SDS011;3779;49.216;8.650;2022-08-14T16:31:20;1.42;;;1.33;;
7475;SDS011;3779;49.216;8.650;2022-08-14T16:34:10;2.38;;;1.58;;
7475;SDS011;3779;49.216;8.650;2022-08-14T16:36:55;1.80;;;1.70;;
7475;SDS011;3779;49.216;8.650;2022-08-14T16:39:42;1.30;;;1.20;;
7475;SDS011;3779;49.216;8.650;2022-08-14T16:42:28;1.55;;;1.27;;
7475;SDS011;3779;49.216;8.650;2022-08-14T16:45:17;1.50;;;1.08;;
7475;SDS011;3779;49.216;8.650;2022-08-14T16:48:09;1.00;;;1.00;;
7475;SDS011;3779;49.216;8.650;2022-08-14T16:50:55;0.80;;;0.80;;
7475;SDS011;3779;49.216;8.650;2022-08-14T16:53:44;2.88;;;1.38;;
7475;SDS011;3779;49.216;8.650;2022-08-14T16:56:31;1.45;;;1.35;;
7475;SDS011;3779;49.216;8.650;2022-08-14T16:59:19;1.90;;;1.50;;
7475;SDS011;3779;49.216;8.650;2022-08-14T17:02:08;2.08;;;1.92;;
7475;SDS011;3779;49.216;8.650;2022-08-14T17:05:13;1.92;;;1.77;;
7475;SDS011;3779;49.216;8.650;2022-08-14T17:08:23;7.13;;;2.33;;
7475;SDS011;3779;49.216;8.650;2022-08-14T17:11:09;3.13;;;1.88;;
7475;SDS011;3779;49.216;8.650;2022-08-14T17:13:54;2.30;;;2.00;;
7475;SDS011;3779;49.216;8.650;2022-08-14T17:16:40;1.85;;;1.75;;
7475;SDS011;3779;49.216;8.650;2022-08-14T17:19:26;2.15;;;1.88;;
7475;SDS011;3779;49.216;8.650;2022-08-14T17:25:30;1.98;;;1.85;;
7475;SDS011;3779;49.216;8.650;2022-08-14T17:28:21;2.00;;;1.65;;
7475;SDS011;3779;49.216;8.650;2022-08-14T17:31:08;2.08;;;1.45;;
7475;SDS011;3779;49.216;8.650;2022-08-14T17:33:53;1.85;;;1.73;;
7475;SDS011;3779;49.216;8.650;2022-08-14T17:36:48;1.40;;;1.30;;
7475;SDS011;3779;49.216;8.650;2022-08-14T17:39:38;1.65;;;1.50;;